sensor_id;sensor_type;location;lat;lon;timestamp;P1;durP1;ratioP1;P2;durP2;ratioP2
9160;SDS011;4615;51.340;8.288;2024-02-26T00:01:54;2.42;;;1.90;;
9160;SDS011;4615;51.340;8.288;2024-02-26T00:04:22;1.92;;;1.70;;
9160;SDS011;4615;51.340;8.288;2024-02-26T00:06:48;2.10;;;1.70;;
9160;SDS011;4615;51.340;8.288;2024-02-26T00:09:16;2.10;;;1.60;;
9160;SDS011;4615;51.340;8.288;2024-02-26T00:11:42;1.88;;;1.70;;
9160;SDS011;4615;51.340;8.288;2024-02-26T00:14:10;3.20;;;2.50;;
9160;SDS011;4615;51.340;8.288;2024-02-26T00:16:39;2.47;;;1.60;;
9160;SDS011;4615;51.340;8.288;2024-02-26T00:19:05;2.88;;;2.05;;
9160;SDS011;4615;51.340;8.288;2024-02-26T00:21:33;2.80;;;1.77;;
9160;SDS011;4615;51.340;8.288;2024-02-26T00:24:00;2.85;;;2.13;;
9160;SDS011;4615;51.340;8.288;2024-02-26T00:26:25;4.90;;;2.65;;
9160;SDS011;4615;51.340;8.288;2024-02-26T00:28:51;3.25;;;2.00;;
9160;SDS011;4615;51.340;8.288;2024-02-26T00:31:18;3.65;;;2.10;;
9160;SDS011;4615;51.340;8.288;2024-02-26T00:33:44;3.30;;;2.17;;
9160;SDS011;4615;51.340;8.288;2024-02-26T00:36:10;3.53;;;2.40;;
9160;SDS011;4615;51.340;8.288;2024-02-26T00:38:38;1.75;;;1.50;;
9160;SDS011;4615;51.340;8.288;2024-02-26T00:41:05;2.25;;;1.50;;
9160;SDS011;4615;51.340;8.288;2024-02-26T00:43:31;1.92;;;1.52;;
9160;SDS011;4615;51.340;8.288;2024-02-26T00:45:58;1.90;;;1.45;;
9160;SDS011;4615;51.340;8.288;2024-02-26T00:48:25;2.13;;;1.60;;
9160;SDS011;4615;51.340;8.288;2024-02-26T00:50:51;1.75;;;1.52;;
9160;SDS011;4615;51.340;8.288;2024-02-26T00:53:18;1.92;;;1.65;;
9160;SDS011;4615;51.340;8.288;2024-02-26T00:55:48;1.70;;;1.50;;
9160;SDS011;4615;51.340;8.288;2024-02-26T00:58:14;2.35;;;1.50;;
9160;SDS011;4615;51.340;8.288;2024-02-26T01:00:40;1.67;;;1.40;;
9160;SDS011;4615;51.340;8.288;2024-02-26T01:03:07;2.00;;;1.60;;
9160;SDS011;4615;51.340;8.288;2024-02-26T01:05:35;1.70;;;1.48;;
9160;SDS011;4615;51.340;8.288;2024-02-26T01:08:02;1.60;;;1.50;;
9160;SDS011;4615;51.340;8.288;2024-02-26T01:10:29;1.45;;;1.35;;
9160;SDS011;4615;51.340;8.288;2024-02-26T01:12:56;1.80;;;1.50;;
9160;SDS011;4615;51.340;8.288;2024-02-26T01:15:23;1.73;;;1.40;;
9160;SDS011;4615;51.340;8.288;2024-02-26T01:17:49;1.50;;;1.40;;
9160;SDS011;4615;51.340;8.288;2024-02-26T01:20:16;2.00;;;1.50;;
9160;SDS011;4615;51.340;8.288;2024-02-26T01:22:42;1.85;;;1.42;;
9160;SDS011;4615;51.340;8.288;2024-02-26T01:25:08;2.63;;;1.30;;
9160;SDS011;4615;51.340;8.288;2024-02-26T01:27:35;2.20;;;1.40;;
9160;SDS011;4615;51.340;8.288;2024-02-26T01:30:03;1.42;;;1.30;;
9160;SDS011;4615;51.340;8.288;2024-02-26T01:32:30;1.37;;;1.27;;
9160;SDS011;4615;51.340;8.288;2024-02-26T01:34:56;1.55;;;1.33;;
9160;SDS011;4615;51.340;8.288;2024-02-26T01:37:23;5.10;;;3.42;;
9160;SDS011;4615;51.340;8.288;2024-02-26T01:39:49;3.30;;;2.13;;
9160;SDS011;4615;51.340;8.288;2024-02-26T01:42:15;1.60;;;1.50;;
9160;SDS011;4615;51.340;8.288;2024-02-26T01:44:42;1.30;;;1.20;;
9160;SDS011;4615;51.340;8.288;2024-02-26T01:47:10;1.30;;;1.20;;
9160;SDS011;4615;51.340;8.288;2024-02-26T01:49:37;1.38;;;1.27;;
9160;SDS011;4615;51.340;8.288;2024-02-26T01:52:05;1.30;;;1.20;;
9160;SDS011;4615;51.340;8.288;2024-02-26T01:54:32;1.30;;;1.20;;
9160;SDS011;4615;51.340;8.288;2024-02-26T01:57:00;1.70;;;1.25;;
9160;SDS011;4615;51.340;8.288;2024-02-26T01:59:28;1.58;;;1.48;;
9160;SDS011;4615;51.340;8.288;2024-02-26T02:01:55;1.47;;;1.33;;
9160;SDS011;4615;51.340;8.288;2024-02-26T02:04:23;1.30;;;1.20;;
9160;SDS011;4615;51.340;8.288;2024-02-26T02:06:49;1.85;;;1.40;;
9160;SDS011;4615;51.340;8.288;2024-02-26T02:09:16;1.43;;;1.33;;
9160;SDS011;4615;51.340;8.288;2024-02-26T02:11:42;1.40;;;1.30;;
9160;SDS011;4615;51.340;8.288;2024-02-26T02:14:09;1.45;;;1.30;;
9160;SDS011;4615;51.340;8.288;2024-02-26T02:16:36;1.85;;;1.30;;
9160;SDS011;4615;51.340;8.288;2024-02-26T02:19:02;1.20;;;1.10;;
9160;SDS011;4615;51.340;8.288;2024-02-26T02:21:30;1.20;;;1.10;;
9160;SDS011;4615;51.340;8.288;2024-02-26T02:23:56;1.90;;;1.20;;
9160;SDS011;4615;51.340;8.288;2024-02-26T02:26:22;1.25;;;1.13;;
9160;SDS011;4615;51.340;8.288;2024-02-26T02:28:49;1.42;;;1.33;;
9160;SDS011;4615;51.340;8.288;2024-02-26T02:31:15;1.30;;;1.20;;
9160;SDS011;4615;51.340;8.288;2024-02-26T02:33:42;1.33;;;1.20;;
9160;SDS011;4615;51.340;8.288;2024-02-26T02:36:08;1.63;;;1.27;;
9160;SDS011;4615;51.340;8.288;2024-02-26T02:38:37;1.70;;;1.20;;
9160;SDS011;4615;51.340;8.288;2024-02-26T02:41:03;2.10;;;1.30;;
9160;SDS011;4615;51.340;8.288;2024-02-26T02:43:29;1.65;;;1.30;;
9160;SDS011;4615;51.340;8.288;2024-02-26T02:45:56;1.50;;;1.40;;
9160;SDS011;4615;51.340;8.288;2024-02-26T02:48:22;1.38;;;1.20;;
9160;SDS011;4615;51.340;8.288;2024-02-26T02:50:49;1.67;;;1.47;;
9160;SDS011;4615;51.340;8.288;2024-02-26T02:53:15;1.40;;;1.30;;
9160;SDS011;4615;51.340;8.288;2024-02-26T02:55:44;1.80;;;1.30;;
9160;SDS011;4615;51.340;8.288;2024-02-26T02:58:11;2.42;;;1.40;;
9160;SDS011;4615;51.340;8.288;2024-02-26T03:00:37;1.50;;;1.38;;
9160;SDS011;4615;51.340;8.288;2024-02-26T03:03:04;1.30;;;1.20;;
9160;SDS011;4615;51.340;8.288;2024-02-26T03:05:30;1.60;;;1.10;;
9160;SDS011;4615;51.340;8.288;2024-02-26T03:07:57;1.67;;;1.40;;
9160;SDS011;4615;51.340;8.288;2024-02-26T03:10:24;1.45;;;1.30;;
9160;SDS011;4615;51.340;8.288;2024-02-26T03:12:51;2.15;;;1.63;;
9160;SDS011;4615;51.340;8.288;2024-02-26T03:15:18;2.63;;;1.50;;
9160;SDS011;4615;51.340;8.288;2024-02-26T03:17:44;1.50;;;1.40;;
9160;SDS011;4615;51.340;8.288;2024-02-26T03:20:11;2.10;;;1.40;;
9160;SDS011;4615;51.340;8.288;2024-02-26T03:22:38;1.95;;;1.40;;
9160;SDS011;4615;51.340;8.288;2024-02-26T03:25:04;1.50;;;1.40;;
9160;SDS011;4615;51.340;8.288;2024-02-26T03:27:31;2.50;;;1.50;;
9160;SDS011;4615;51.340;8.288;2024-02-26T03:29:59;1.90;;;1.53;;
9160;SDS011;4615;51.340;8.288;2024-02-26T03:32:25;1.93;;;1.73;;
9160;SDS011;4615;51.340;8.288;2024-02-26T03:34:51;3.65;;;2.00;;
9160;SDS011;4615;51.340;8.288;2024-02-26T03:37:19;2.30;;;1.73;;
9160;SDS011;4615;51.340;8.288;2024-02-26T03:39:45;2.92;;;1.75;;
9160;SDS011;4615;51.340;8.288;2024-02-26T03:42:12;2.20;;;1.90;;
9160;SDS011;4615;51.340;8.288;2024-02-26T03:44:38;2.47;;;1.60;;
9160;SDS011;4615;51.340;8.288;2024-02-26T03:47:06;1.97;;;1.77;;
9160;SDS011;4615;51.340;8.288;2024-02-26T03:49:32;2.17;;;1.60;;
9160;SDS011;4615;51.340;8.288;2024-02-26T03:52:01;1.98;;;1.77;;
9160;SDS011;4615;51.340;8.288;2024-02-26T03:54:28;2.63;;;1.90;;
9160;SDS011;4615;51.340;8.288;2024-02-26T03:56:54;2.47;;;1.87;;
9160;SDS011;4615;51.340;8.288;2024-02-26T03:59:20;2.67;;;1.80;;
9160;SDS011;4615;51.340;8.288;2024-02-26T04:01:49;2.38;;;1.58;;
9160;SDS011;4615;51.340;8.288;2024-02-26T04:04:17;2.08;;;1.60;;
9160;SDS011;4615;51.340;8.288;2024-02-26T04:06:44;1.60;;;1.42;;
9160;SDS011;4615;51.340;8.288;2024-02-26T04:09:10;1.38;;;1.27;;
9160;SDS011;4615;51.340;8.288;2024-02-26T04:11:36;2.40;;;1.50;;
9160;SDS011;4615;51.340;8.288;2024-02-26T04:14:03;1.63;;;1.50;;
9160;SDS011;4615;51.340;8.288;2024-02-26T04:16:31;2.10;;;1.40;;
9160;SDS011;4615;51.340;8.288;2024-02-26T04:18:57;3.15;;;1.35;;
9160;SDS011;4615;51.340;8.288;2024-02-26T04:21:25;1.80;;;1.30;;
9160;SDS011;4615;51.340;8.288;2024-02-26T04:23:51;1.50;;;1.40;;
9160;SDS011;4615;51.340;8.288;2024-02-26T04:26:20;2.20;;;1.70;;
9160;SDS011;4615;51.340;8.288;2024-02-26T04:28:46;1.42;;;1.33;;
9160;SDS011;4615;51.340;8.288;2024-02-26T04:31:12;1.80;;;1.60;;
9160;SDS011;4615;51.340;8.288;2024-02-26T04:33:39;1.85;;;1.55;;
9160;SDS011;4615;51.340;8.288;2024-02-26T04:36:11;1.90;;;1.57;;
9160;SDS011;4615;51.340;8.288;2024-02-26T04:38:39;1.67;;;1.45;;
9160;SDS011;4615;51.340;8.288;2024-02-26T04:41:05;1.70;;;1.50;;
9160;SDS011;4615;51.340;8.288;2024-02-26T04:43:32;1.60;;;1.50;;
9160;SDS011;4615;51.340;8.288;2024-02-26T04:45:58;2.05;;;1.40;;
9160;SDS011;4615;51.340;8.288;2024-02-26T04:48:24;1.50;;;1.40;;
9160;SDS011;4615;51.340;8.288;2024-02-26T04:50:51;1.95;;;1.58;;
9160;SDS011;4615;51.340;8.288;2024-02-26T04:53:17;1.50;;;1.40;;
9160;SDS011;4615;51.340;8.288;2024-02-26T04:55:45;1.53;;;1.40;;
9160;SDS011;4615;51.340;8.288;2024-02-26T04:58:11;1.70;;;1.60;;
9160;SDS011;4615;51.340;8.288;2024-02-26T05:00:37;1.50;;;1.40;;
9160;SDS011;4615;51.340;8.288;2024-02-26T05:03:04;1.90;;;1.60;;
9160;SDS011;4615;51.340;8.288;2024-02-26T05:05:30;1.60;;;1.43;;
9160;SDS011;4615;51.340;8.288;2024-02-26T05:07:57;2.30;;;1.70;;
9160;SDS011;4615;51.340;8.288;2024-02-26T05:10:23;1.88;;;1.70;;
9160;SDS011;4615;51.340;8.288;2024-02-26T05:12:51;1.70;;;1.60;;
9160;SDS011;4615;51.340;8.288;2024-02-26T05:15:18;1.75;;;1.60;;
9160;SDS011;4615;51.340;8.288;2024-02-26T05:17:44;1.77;;;1.50;;
9160;SDS011;4615;51.340;8.288;2024-02-26T05:20:11;1.70;;;1.60;;
9160;SDS011;4615;51.340;8.288;2024-02-26T05:22:37;2.78;;;1.95;;
9160;SDS011;4615;51.340;8.288;2024-02-26T05:25:04;1.90;;;1.70;;
9160;SDS011;4615;51.340;8.288;2024-02-26T05:27:30;1.75;;;1.52;;
9160;SDS011;4615;51.340;8.288;2024-02-26T05:29:58;1.97;;;1.77;;
9160;SDS011;4615;51.340;8.288;2024-02-26T05:32:24;1.83;;;1.73;;
9160;SDS011;4615;51.340;8.288;2024-02-26T05:34:51;1.90;;;1.80;;
9160;SDS011;4615;51.340;8.288;2024-02-26T05:37:17;1.95;;;1.65;;
9160;SDS011;4615;51.340;8.288;2024-02-26T05:39:43;1.77;;;1.67;;
9160;SDS011;4615;51.340;8.288;2024-02-26T05:42:09;2.03;;;1.80;;
9160;SDS011;4615;51.340;8.288;2024-02-26T05:44:36;1.90;;;1.60;;
9160;SDS011;4615;51.340;8.288;2024-02-26T05:47:04;2.65;;;1.90;;
9160;SDS011;4615;51.340;8.288;2024-02-26T05:49:30;1.77;;;1.60;;
9160;SDS011;4615;51.340;8.288;2024-02-26T05:51:57;4.72;;;1.90;;
9160;SDS011;4615;51.340;8.288;2024-02-26T05:54:23;2.15;;;1.67;;
9160;SDS011;4615;51.340;8.288;2024-02-26T05:56:50;2.25;;;1.67;;
9160;SDS011;4615;51.340;8.288;2024-02-26T05:59:17;1.80;;;1.70;;
9160;SDS011;4615;51.340;8.288;2024-02-26T06:01:43;2.40;;;1.60;;
9160;SDS011;4615;51.340;8.288;2024-02-26T06:04:11;1.90;;;1.70;;
9160;SDS011;4615;51.340;8.288;2024-02-26T06:06:38;2.10;;;1.60;;
9160;SDS011;4615;51.340;8.288;2024-02-26T06:09:04;1.98;;;1.77;;
9160;SDS011;4615;51.340;8.288;2024-02-26T06:11:31;2.17;;;1.80;;
9160;SDS011;4615;51.340;8.288;2024-02-26T06:13:57;2.10;;;1.90;;
9160;SDS011;4615;51.340;8.288;2024-02-26T06:16:23;3.38;;;1.90;;
9160;SDS011;4615;51.340;8.288;2024-02-26T06:18:50;2.25;;;1.90;;
9160;SDS011;4615;51.340;8.288;2024-02-26T06:21:17;2.50;;;1.95;;
9160;SDS011;4615;51.340;8.288;2024-02-26T06:23:44;2.80;;;2.20;;
9160;SDS011;4615;51.340;8.288;2024-02-26T06:26:10;2.45;;;1.98;;
9160;SDS011;4615;51.340;8.288;2024-02-26T06:28:37;2.33;;;1.75;;
9160;SDS011;4615;51.340;8.288;2024-02-26T06:31:05;1.83;;;1.70;;
9160;SDS011;4615;51.340;8.288;2024-02-26T06:33:32;1.73;;;1.60;;
9160;SDS011;4615;51.340;8.288;2024-02-26T06:35:58;2.60;;;1.77;;
9160;SDS011;4615;51.340;8.288;2024-02-26T06:38:26;2.00;;;1.85;;
9160;SDS011;4615;51.340;8.288;2024-02-26T06:40:52;2.95;;;1.88;;
9160;SDS011;4615;51.340;8.288;2024-02-26T06:43:19;2.00;;;1.80;;
9160;SDS011;4615;51.340;8.288;2024-02-26T06:45:45;2.20;;;1.98;;
9160;SDS011;4615;51.340;8.288;2024-02-26T06:48:11;3.00;;;2.00;;
9160;SDS011;4615;51.340;8.288;2024-02-26T06:50:38;2.25;;;2.05;;
9160;SDS011;4615;51.340;8.288;2024-02-26T06:53:04;2.13;;;1.90;;
9160;SDS011;4615;51.340;8.288;2024-02-26T06:55:33;2.13;;;1.92;;
9160;SDS011;4615;51.340;8.288;2024-02-26T06:58:00;2.40;;;2.20;;
9160;SDS011;4615;51.340;8.288;2024-02-26T07:00:26;2.23;;;2.00;;
9160;SDS011;4615;51.340;8.288;2024-02-26T07:02:52;2.70;;;2.20;;
9160;SDS011;4615;51.340;8.288;2024-02-26T07:05:19;3.25;;;2.03;;
9160;SDS011;4615;51.340;8.288;2024-02-26T07:07:45;2.20;;;2.00;;
9160;SDS011;4615;51.340;8.288;2024-02-26T07:10:11;2.47;;;2.22;;
9160;SDS011;4615;51.340;8.288;2024-02-26T07:12:39;2.33;;;2.13;;
9160;SDS011;4615;51.340;8.288;2024-02-26T07:15:06;2.45;;;2.10;;
9160;SDS011;4615;51.340;8.288;2024-02-26T07:17:33;2.20;;;2.00;;
9160;SDS011;4615;51.340;8.288;2024-02-26T07:19:59;2.30;;;2.10;;
9160;SDS011;4615;51.340;8.288;2024-02-26T07:22:26;2.15;;;1.92;;
9160;SDS011;4615;51.340;8.288;2024-02-26T07:24:52;2.15;;;1.95;;
9160;SDS011;4615;51.340;8.288;2024-02-26T07:27:18;2.05;;;1.80;;
9160;SDS011;4615;51.340;8.288;2024-02-26T07:29:47;2.07;;;1.87;;
9160;SDS011;4615;51.340;8.288;2024-02-26T07:32:14;2.27;;;1.97;;
9160;SDS011;4615;51.340;8.288;2024-02-26T07:34:40;2.40;;;2.10;;
9160;SDS011;4615;51.340;8.288;2024-02-26T07:37:09;2.20;;;2.00;;
9160;SDS011;4615;51.340;8.288;2024-02-26T07:39:36;2.80;;;2.10;;
9160;SDS011;4615;51.340;8.288;2024-02-26T07:42:03;2.72;;;2.53;;
9160;SDS011;4615;51.340;8.288;2024-02-26T07:44:29;2.85;;;2.65;;
9160;SDS011;4615;51.340;8.288;2024-02-26T07:46:57;2.55;;;2.35;;
9160;SDS011;4615;51.340;8.288;2024-02-26T07:49:23;2.60;;;2.40;;
9160;SDS011;4615;51.340;8.288;2024-02-26T07:51:49;2.77;;;2.20;;
9160;SDS011;4615;51.340;8.288;2024-02-26T07:54:16;2.38;;;2.17;;
9160;SDS011;4615;51.340;8.288;2024-02-26T07:56:44;3.05;;;2.33;;
9160;SDS011;4615;51.340;8.288;2024-02-26T07:59:10;2.40;;;2.20;;
9160;SDS011;4615;51.340;8.288;2024-02-26T08:01:37;2.50;;;2.15;;
9160;SDS011;4615;51.340;8.288;2024-02-26T08:04:05;2.55;;;2.35;;
9160;SDS011;4615;51.340;8.288;2024-02-26T08:06:31;3.10;;;2.40;;
9160;SDS011;4615;51.340;8.288;2024-02-26T08:08:58;3.15;;;2.55;;
9160;SDS011;4615;51.340;8.288;2024-02-26T08:11:24;3.10;;;2.70;;
9160;SDS011;4615;51.340;8.288;2024-02-26T08:13:50;2.92;;;2.63;;
9160;SDS011;4615;51.340;8.288;2024-02-26T08:16:17;3.50;;;2.58;;
9160;SDS011;4615;51.340;8.288;2024-02-26T08:18:43;3.80;;;2.67;;
9160;SDS011;4615;51.340;8.288;2024-02-26T08:21:11;2.88;;;2.50;;
9160;SDS011;4615;51.340;8.288;2024-02-26T08:23:37;2.90;;;2.60;;
9160;SDS011;4615;51.340;8.288;2024-02-26T08:26:04;2.60;;;2.33;;
9160;SDS011;4615;51.340;8.288;2024-02-26T08:28:32;3.00;;;2.67;;
9160;SDS011;4615;51.340;8.288;2024-02-26T08:30:58;3.40;;;2.45;;
9160;SDS011;4615;51.340;8.288;2024-02-26T08:33:25;2.70;;;2.50;;
9160;SDS011;4615;51.340;8.288;2024-02-26T08:35:52;3.88;;;2.63;;
9160;SDS011;4615;51.340;8.288;2024-02-26T08:38:19;3.30;;;2.70;;
9160;SDS011;4615;51.340;8.288;2024-02-26T08:40:46;3.47;;;2.70;;
9160;SDS011;4615;51.340;8.288;2024-02-26T08:43:12;2.60;;;2.40;;
9160;SDS011;4615;51.340;8.288;2024-02-26T08:45:38;2.80;;;2.60;;
9160;SDS011;4615;51.340;8.288;2024-02-26T08:48:05;2.70;;;2.50;;
9160;SDS011;4615;51.340;8.288;2024-02-26T08:50:32;4.72;;;3.10;;
9160;SDS011;4615;51.340;8.288;2024-02-26T08:52:58;3.15;;;2.70;;
9160;SDS011;4615;51.340;8.288;2024-02-26T08:55:27;4.05;;;3.10;;
9160;SDS011;4615;51.340;8.288;2024-02-26T08:57:54;3.00;;;2.70;;
9160;SDS011;4615;51.340;8.288;2024-02-26T09:00:20;3.45;;;3.00;;
9160;SDS011;4615;51.340;8.288;2024-02-26T09:02:46;3.63;;;3.20;;
9160;SDS011;4615;51.340;8.288;2024-02-26T09:05:13;4.13;;;3.50;;
9160;SDS011;4615;51.340;8.288;2024-02-26T09:07:40;4.22;;;3.83;;
9160;SDS011;4615;51.340;8.288;2024-02-26T09:10:06;4.15;;;3.70;;
9160;SDS011;4615;51.340;8.288;2024-02-26T09:12:36;4.85;;;4.40;;
9160;SDS011;4615;51.340;8.288;2024-02-26T09:15:03;4.82;;;4.32;;
9160;SDS011;4615;51.340;8.288;2024-02-26T09:17:30;4.80;;;4.30;;
9160;SDS011;4615;51.340;8.288;2024-02-26T09:19:56;4.78;;;4.28;;
9160;SDS011;4615;51.340;8.288;2024-02-26T09:22:22;6.20;;;4.47;;
9160;SDS011;4615;51.340;8.288;2024-02-26T09:24:49;4.85;;;4.30;;
9160;SDS011;4615;51.340;8.288;2024-02-26T09:27:16;4.80;;;4.30;;
9160;SDS011;4615;51.340;8.288;2024-02-26T09:29:44;5.65;;;4.28;;
9160;SDS011;4615;51.340;8.288;2024-02-26T09:32:10;4.63;;;4.22;;
9160;SDS011;4615;51.340;8.288;2024-02-26T09:34:36;5.35;;;4.85;;
9160;SDS011;4615;51.340;8.288;2024-02-26T09:37:05;5.20;;;4.70;;
9160;SDS011;4615;51.340;8.288;2024-02-26T09:39:32;6.32;;;5.28;;
9160;SDS011;4615;51.340;8.288;2024-02-26T09:41:58;6.22;;;5.63;;
9160;SDS011;4615;51.340;8.288;2024-02-26T09:44:26;5.15;;;4.50;;
9160;SDS011;4615;51.340;8.288;2024-02-26T09:46:56;7.20;;;4.60;;
9160;SDS011;4615;51.340;8.288;2024-02-26T09:49:24;5.90;;;4.60;;
9160;SDS011;4615;51.340;8.288;2024-02-26T09:51:50;5.20;;;4.70;;
9160;SDS011;4615;51.340;8.288;2024-02-26T09:54:18;6.20;;;5.28;;
9160;SDS011;4615;51.340;8.288;2024-02-26T09:56:45;7.90;;;5.93;;
9160;SDS011;4615;51.340;8.288;2024-02-26T09:59:15;6.07;;;5.43;;
9160;SDS011;4615;51.340;8.288;2024-02-26T10:01:43;6.20;;;5.53;;
9160;SDS011;4615;51.340;8.288;2024-02-26T10:04:12;7.10;;;6.05;;
9160;SDS011;4615;51.340;8.288;2024-02-26T10:06:38;8.52;;;6.25;;
9160;SDS011;4615;51.340;8.288;2024-02-26T10:09:05;7.47;;;6.13;;
9160;SDS011;4615;51.340;8.288;2024-02-26T10:11:34;11.38;;;7.00;;
9160;SDS011;4615;51.340;8.288;2024-02-26T10:14:01;8.10;;;6.10;;
9160;SDS011;4615;51.340;8.288;2024-02-26T10:16:28;8.10;;;6.43;;
9160;SDS011;4615;51.340;8.288;2024-02-26T10:18:54;7.72;;;6.60;;
9160;SDS011;4615;51.340;8.288;2024-02-26T10:21:22;7.10;;;6.40;;
9160;SDS011;4615;51.340;8.288;2024-02-26T10:23:49;8.25;;;6.78;;
9160;SDS011;4615;51.340;8.288;2024-02-26T10:26:16;9.10;;;6.75;;
9160;SDS011;4615;51.340;8.288;2024-02-26T10:28:42;8.38;;;6.90;;
9160;SDS011;4615;51.340;8.288;2024-02-26T10:31:09;9.88;;;7.38;;
9160;SDS011;4615;51.340;8.288;2024-02-26T10:33:36;8.20;;;6.90;;
9160;SDS011;4615;51.340;8.288;2024-02-26T10:36:03;7.22;;;6.53;;
9160;SDS011;4615;51.340;8.288;2024-02-26T10:38:31;7.70;;;6.90;;
9160;SDS011;4615;51.340;8.288;2024-02-26T10:40:58;7.93;;;7.13;;
9160;SDS011;4615;51.340;8.288;2024-02-26T10:43:25;8.77;;;7.82;;
9160;SDS011;4615;51.340;8.288;2024-02-26T10:45:51;8.95;;;8.05;;
9160;SDS011;4615;51.340;8.288;2024-02-26T10:48:18;10.13;;;8.15;;
9160;SDS011;4615;51.340;8.288;2024-02-26T10:50:45;8.52;;;7.47;;
9160;SDS011;4615;51.340;8.288;2024-02-26T10:53:13;10.10;;;7.97;;
9160;SDS011;4615;51.340;8.288;2024-02-26T10:55:42;11.40;;;8.03;;
9160;SDS011;4615;51.340;8.288;2024-02-26T10:58:09;10.38;;;9.15;;
9160;SDS011;4615;51.340;8.288;2024-02-26T11:00:36;8.95;;;8.02;;
9160;SDS011;4615;51.340;8.288;2024-02-26T11:03:04;9.50;;;8.50;;
9160;SDS011;4615;51.340;8.288;2024-02-26T11:05:31;10.57;;;9.50;;
9160;SDS011;4615;51.340;8.288;2024-02-26T11:07:58;19.48;;;12.23;;
9160;SDS011;4615;51.340;8.288;2024-02-26T11:10:25;13.32;;;9.50;;
9160;SDS011;4615;51.340;8.288;2024-02-26T11:12:54;12.20;;;9.38;;
9160;SDS011;4615;51.340;8.288;2024-02-26T11:15:21;12.37;;;10.40;;
9160;SDS011;4615;51.340;8.288;2024-02-26T11:17:49;13.52;;;10.98;;
9160;SDS011;4615;51.340;8.288;2024-02-26T11:20:18;12.68;;;10.05;;
9160;SDS011;4615;51.340;8.288;2024-02-26T11:22:45;11.13;;;9.95;;
9160;SDS011;4615;51.340;8.288;2024-02-26T11:25:12;12.17;;;10.93;;
9160;SDS011;4615;51.340;8.288;2024-02-26T11:27:39;11.70;;;10.48;;
9160;SDS011;4615;51.340;8.288;2024-02-26T11:30:09;12.23;;;10.68;;
9160;SDS011;4615;51.340;8.288;2024-02-26T11:32:36;11.65;;;10.48;;
9160;SDS011;4615;51.340;8.288;2024-02-26T11:35:03;11.93;;;10.32;;
9160;SDS011;4615;51.340;8.288;2024-02-26T11:37:29;12.98;;;11.57;;
9160;SDS011;4615;51.340;8.288;2024-02-26T11:39:56;13.88;;;12.40;;
9160;SDS011;4615;51.340;8.288;2024-02-26T11:42:24;15.13;;;12.50;;
9160;SDS011;4615;51.340;8.288;2024-02-26T11:44:51;16.38;;;13.52;;
9160;SDS011;4615;51.340;8.288;2024-02-26T11:47:19;14.95;;;13.27;;
9160;SDS011;4615;51.340;8.288;2024-02-26T11:49:46;17.10;;;14.73;;
9160;SDS011;4615;51.340;8.288;2024-02-26T11:52:13;17.45;;;13.77;;
9160;SDS011;4615;51.340;8.288;2024-02-26T11:54:43;14.77;;;12.88;;
9160;SDS011;4615;51.340;8.288;2024-02-26T11:57:24;12.52;;;11.00;;
9160;SDS011;4615;51.340;8.288;2024-02-26T11:59:51;12.65;;;11.35;;
9160;SDS011;4615;51.340;8.288;2024-02-26T12:05:00;12.40;;;11.20;;
9160;SDS011;4615;51.340;8.288;2024-02-26T12:07:27;12.30;;;11.00;;
9160;SDS011;4615;51.340;8.288;2024-02-26T12:09:56;12.40;;;11.20;;
9160;SDS011;4615;51.340;8.288;2024-02-26T12:12:39;11.65;;;10.20;;
9160;SDS011;4615;51.340;8.288;2024-02-26T12:15:05;10.60;;;9.60;;
9160;SDS011;4615;51.340;8.288;2024-02-26T12:17:35;11.82;;;10.63;;
9160;SDS011;4615;51.340;8.288;2024-02-26T12:20:09;11.05;;;9.88;;
9160;SDS011;4615;51.340;8.288;2024-02-26T12:22:36;10.85;;;9.75;;
9160;SDS011;4615;51.340;8.288;2024-02-26T12:25:04;11.27;;;10.18;;
9160;SDS011;4615;51.340;8.288;2024-02-26T12:27:31;11.98;;;10.70;;
9160;SDS011;4615;51.340;8.288;2024-02-26T12:29:58;10.73;;;9.63;;
9160;SDS011;4615;51.340;8.288;2024-02-26T12:32:24;10.80;;;9.57;;
9160;SDS011;4615;51.340;8.288;2024-02-26T12:34:51;10.25;;;9.25;;
9160;SDS011;4615;51.340;8.288;2024-02-26T12:37:19;9.33;;;8.43;;
9160;SDS011;4615;51.340;8.288;2024-02-26T12:39:45;11.18;;;10.00;;
9160;SDS011;4615;51.340;8.288;2024-02-26T12:42:12;9.35;;;8.35;;
9160;SDS011;4615;51.340;8.288;2024-02-26T12:44:38;9.88;;;8.68;;
9160;SDS011;4615;51.340;8.288;2024-02-26T12:47:04;9.43;;;8.43;;
9160;SDS011;4615;51.340;8.288;2024-02-26T12:49:31;9.52;;;8.63;;
9160;SDS011;4615;51.340;8.288;2024-02-26T12:51:57;10.27;;;9.18;;
9160;SDS011;4615;51.340;8.288;2024-02-26T12:54:27;10.20;;;9.20;;
9160;SDS011;4615;51.340;8.288;2024-02-26T12:56:54;9.20;;;8.30;;
9160;SDS011;4615;51.340;8.288;2024-02-26T12:59:21;9.23;;;8.25;;
9160;SDS011;4615;51.340;8.288;2024-02-26T13:01:48;9.65;;;8.27;;
9160;SDS011;4615;51.340;8.288;2024-02-26T13:04:15;9.53;;;8.57;;
9160;SDS011;4615;51.340;8.288;2024-02-26T13:06:42;9.65;;;8.10;;
9160;SDS011;4615;51.340;8.288;2024-02-26T13:09:12;8.43;;;7.63;;
9160;SDS011;4615;51.340;8.288;2024-02-26T13:11:40;9.20;;;8.30;;
9160;SDS011;4615;51.340;8.288;2024-02-26T13:14:06;8.23;;;7.43;;
9160;SDS011;4615;51.340;8.288;2024-02-26T13:16:33;8.73;;;7.93;;
9160;SDS011;4615;51.340;8.288;2024-02-26T13:19:07;8.65;;;7.85;;
9160;SDS011;4615;51.340;8.288;2024-02-26T13:21:34;8.45;;;7.65;;
9160;SDS011;4615;51.340;8.288;2024-02-26T13:24:00;8.00;;;7.20;;
9160;SDS011;4615;51.340;8.288;2024-02-26T13:26:27;7.90;;;7.20;;
9160;SDS011;4615;51.340;8.288;2024-02-26T13:29:01;8.23;;;7.40;;
9160;SDS011;4615;51.340;8.288;2024-02-26T13:31:28;7.72;;;6.97;;
9160;SDS011;4615;51.340;8.288;2024-02-26T13:33:54;7.82;;;7.03;;
9160;SDS011;4615;51.340;8.288;2024-02-26T13:36:21;8.88;;;7.75;;
9160;SDS011;4615;51.340;8.288;2024-02-26T13:38:51;8.20;;;7.40;;
9160;SDS011;4615;51.340;8.288;2024-02-26T13:41:17;7.68;;;6.88;;
9160;SDS011;4615;51.340;8.288;2024-02-26T13:43:43;8.25;;;7.45;;
9160;SDS011;4615;51.340;8.288;2024-02-26T13:46:12;7.43;;;6.72;;
9160;SDS011;4615;51.340;8.288;2024-02-26T13:48:40;7.32;;;6.63;;
9160;SDS011;4615;51.340;8.288;2024-02-26T13:51:06;7.18;;;6.47;;
9160;SDS011;4615;51.340;8.288;2024-02-26T13:53:33;8.10;;;7.30;;
9160;SDS011;4615;51.340;8.288;2024-02-26T13:55:59;7.50;;;6.80;;
9160;SDS011;4615;51.340;8.288;2024-02-26T13:58:26;8.32;;;7.03;;
9160;SDS011;4615;51.340;8.288;2024-02-26T14:00:52;16.90;;;12.68;;
9160;SDS011;4615;51.340;8.288;2024-02-26T14:03:20;11.57;;;8.80;;
9160;SDS011;4615;51.340;8.288;2024-02-26T14:05:47;8.20;;;7.10;;
9160;SDS011;4615;51.340;8.288;2024-02-26T14:08:13;8.07;;;7.13;;
9160;SDS011;4615;51.340;8.288;2024-02-26T14:10:39;7.70;;;6.72;;
9160;SDS011;4615;51.340;8.288;2024-02-26T14:13:06;7.53;;;6.57;;
9160;SDS011;4615;51.340;8.288;2024-02-26T14:15:33;7.53;;;6.82;;
9160;SDS011;4615;51.340;8.288;2024-02-26T14:18:00;7.78;;;6.97;;
9160;SDS011;4615;51.340;8.288;2024-02-26T14:20:29;7.90;;;6.80;;
9160;SDS011;4615;51.340;8.288;2024-02-26T14:22:56;7.22;;;6.53;;
9160;SDS011;4615;51.340;8.288;2024-02-26T14:25:22;7.40;;;6.70;;
9160;SDS011;4615;51.340;8.288;2024-02-26T14:27:49;8.43;;;7.63;;
9160;SDS011;4615;51.340;8.288;2024-02-26T14:30:15;8.35;;;7.40;;
9160;SDS011;4615;51.340;8.288;2024-02-26T14:32:41;8.32;;;7.53;;
9160;SDS011;4615;51.340;8.288;2024-02-26T14:35:09;9.00;;;7.90;;
9160;SDS011;4615;51.340;8.288;2024-02-26T14:37:39;7.68;;;6.85;;
9160;SDS011;4615;51.340;8.288;2024-02-26T14:40:06;7.40;;;6.63;;
9160;SDS011;4615;51.340;8.288;2024-02-26T14:42:33;9.20;;;7.30;;
9160;SDS011;4615;51.340;8.288;2024-02-26T14:44:59;10.27;;;7.30;;
9160;SDS011;4615;51.340;8.288;2024-02-26T14:47:26;8.23;;;6.82;;
9160;SDS011;4615;51.340;8.288;2024-02-26T14:49:52;8.10;;;7.30;;
9160;SDS011;4615;51.340;8.288;2024-02-26T14:52:18;7.80;;;6.88;;
9160;SDS011;4615;51.340;8.288;2024-02-26T14:54:46;7.57;;;6.78;;
9160;SDS011;4615;51.340;8.288;2024-02-26T14:57:13;7.40;;;6.70;;
9160;SDS011;4615;51.340;8.288;2024-02-26T14:59:40;8.20;;;6.70;;
9160;SDS011;4615;51.340;8.288;2024-02-26T15:02:07;7.30;;;6.60;;
9160;SDS011;4615;51.340;8.288;2024-02-26T15:04:34;7.17;;;6.47;;
9160;SDS011;4615;51.340;8.288;2024-02-26T15:07:01;7.60;;;6.55;;
9160;SDS011;4615;51.340;8.288;2024-02-26T15:09:27;7.20;;;6.50;;
9160;SDS011;4615;51.340;8.288;2024-02-26T15:11:55;7.57;;;5.97;;
9160;SDS011;4615;51.340;8.288;2024-02-26T15:14:22;6.95;;;6.13;;